createdAt,value
2018-07-31T00:01:29.484Z,10.97
2018-07-31T00:03:58.131Z,12.33
2018-07-31T00:06:26.780Z,10.17
2018-07-31T00:08:56.415Z,11.73
2018-07-31T00:11:25.260Z,11.73
2018-07-31T00:13:54.094Z,10.83
2018-07-31T00:16:22.694Z,13.77
2018-07-31T00:18:51.383Z,11.97
2018-07-31T00:21:20.082Z,12.20
2018-07-31T00:23:48.755Z,11.80
2018-07-31T00:26:17.424Z,10.73
2018-07-31T00:28:46.149Z,10.80
2018-07-31T00:31:14.905Z,11.07
2018-07-31T00:33:43.891Z,11.23
2018-07-31T00:36:12.520Z,12.53
2018-07-31T00:38:41.159Z,11.30
2018-07-31T00:41:10.402Z,11.93
2018-07-31T00:43:39.111Z,12.60
2018-07-31T00:46:07.806Z,9.83
2018-07-31T00:48:36.480Z,9.80
2018-07-31T00:51:05.131Z,8.37
2018-07-31T00:53:33.762Z,9.33
2018-07-31T00:56:02.483Z,11.97
2018-07-31T00:58:31.152Z,13.00
2018-07-31T01:00:59.850Z,8.90
2018-07-31T01:03:28.539Z,10.07
2018-07-31T01:05:57.178Z,11.00
2018-07-31T01:08:25.840Z,9.60
2018-07-31T01:10:54.488Z,9.23
2018-07-31T01:13:23.174Z,9.83
2018-07-31T01:15:51.893Z,8.67
2018-07-31T01:18:20.520Z,9.40
2018-07-31T01:20:51.518Z,8.77
2018-07-31T01:23:20.155Z,9.93
2018-07-31T01:25:49.242Z,8.23
2018-07-31T01:28:17.916Z,8.67
2018-07-31T01:30:46.581Z,8.90
2018-07-31T01:33:15.201Z,9.13
2018-07-31T01:35:44.079Z,8.97
2018-07-31T01:38:12.842Z,8.43
2018-07-31T01:40:41.493Z,11.30
2018-07-31T01:43:10.139Z,10.00
2018-07-31T01:45:38.799Z,9.40
2018-07-31T01:48:07.437Z,11.53
2018-07-31T01:50:36.107Z,8.27
2018-07-31T01:53:04.759Z,8.20
2018-07-31T01:55:33.504Z,9.10
2018-07-31T01:58:02.222Z,9.97
2018-07-31T02:00:30.880Z,9.00
2018-07-31T02:02:59.515Z,8.20
2018-07-31T02:05:28.138Z,9.33
2018-07-31T02:07:56.842Z,9.90
2018-07-31T02:10:25.491Z,9.63
2018-07-31T02:12:54.198Z,9.23
2018-07-31T02:15:22.891Z,11.20
2018-07-31T02:17:51.497Z,8.13
2018-07-31T02:20:20.163Z,8.57
2018-07-31T02:22:48.782Z,10.53
2018-07-31T02:25:17.434Z,9.77
2018-07-31T02:27:46.166Z,11.03
2018-07-31T02:30:20.879Z,12.80
2018-07-31T02:32:50.345Z,14.03
2018-07-31T02:35:19.070Z,14.60
2018-07-31T02:37:47.746Z,12.97
2018-07-31T02:40:16.466Z,13.53
2018-07-31T02:42:45.182Z,11.17
2018-07-31T02:45:14.727Z,11.33
2018-07-31T02:47:44.295Z,11.97
2018-07-31T02:50:12.994Z,11.63
2018-07-31T02:52:41.871Z,12.10
2018-07-31T02:55:11.435Z,11.13
2018-07-31T02:57:40.616Z,11.73
2018-07-31T03:00:10.554Z,13.03
2018-07-31T03:02:39.314Z,13.03
2018-07-31T03:05:10.495Z,13.23
2018-07-31T03:07:39.200Z,13.43
2018-07-31T03:10:09.327Z,13.57
2018-07-31T03:12:37.946Z,16.43
2018-07-31T03:15:07.862Z,12.97
2018-07-31T03:17:36.534Z,13.53
2018-07-31T03:20:05.538Z,14.70
2018-07-31T03:22:34.204Z,13.47
2018-07-31T03:25:03.254Z,16.37
2018-07-31T03:27:32.050Z,22.37
2018-07-31T03:30:00.670Z,15.23
2018-07-31T03:32:29.339Z,14.50
2018-07-31T03:34:57.988Z,13.90
2018-07-31T03:37:26.654Z,19.13
2018-07-31T03:39:55.538Z,14.17
2018-07-31T03:42:24.206Z,13.77
2018-07-31T03:44:52.821Z,16.73
2018-07-31T03:47:21.565Z,29.20
2018-07-31T03:49:50.283Z,21.03
2018-07-31T03:52:18.922Z,19.63
2018-07-31T03:54:47.561Z,22.10
2018-07-31T03:57:16.205Z,20.97
2018-07-31T03:59:44.894Z,16.27
2018-07-31T04:02:13.623Z,18.43
2018-07-31T04:04:42.305Z,17.77
2018-07-31T04:07:10.939Z,17.17
2018-07-31T04:09:39.749Z,19.67
2018-07-31T04:12:08.475Z,16.63
2018-07-31T04:14:37.090Z,17.50
2018-07-31T04:17:05.784Z,13.13
2018-07-31T04:19:34.399Z,12.67
2018-07-31T04:22:03.097Z,14.17
2018-07-31T04:24:31.757Z,12.87
2018-07-31T04:27:00.466Z,15.50
2018-07-31T04:29:29.235Z,13.97
2018-07-31T04:31:57.988Z,13.13
2018-07-31T04:34:26.674Z,13.70
2018-07-31T04:36:55.390Z,13.53
2018-07-31T04:39:24.134Z,13.00
2018-07-31T04:41:52.787Z,14.10
2018-07-31T04:44:21.476Z,11.97
2018-07-31T04:46:50.143Z,11.90
2018-07-31T04:49:18.835Z,12.83
2018-07-31T04:51:47.526Z,16.57
2018-07-31T04:54:16.255Z,12.77
2018-07-31T04:56:45.243Z,13.07
2018-07-31T04:59:14.073Z,14.80
2018-07-31T05:01:42.814Z,12.17
2018-07-31T05:04:11.435Z,13.17
2018-07-31T05:06:40.116Z,12.73
2018-07-31T05:09:10.943Z,15.00
2018-07-31T05:11:39.773Z,12.27
2018-07-31T05:14:08.785Z,16.57
2018-07-31T05:16:37.594Z,12.43
2018-07-31T05:19:06.490Z,13.77
2018-07-31T05:21:35.279Z,14.27
2018-07-31T05:24:03.996Z,12.33
2018-07-31T05:26:32.650Z,13.90
2018-07-31T05:29:01.256Z,12.80
2018-07-31T05:31:29.893Z,12.87
2018-07-31T05:33:58.650Z,12.23
2018-07-31T05:36:27.295Z,12.53
2018-07-31T05:38:56.006Z,13.43
2018-07-31T05:41:24.706Z,15.17
2018-07-31T05:43:53.464Z,14.70
2018-07-31T05:46:22.137Z,19.80
2018-07-31T05:48:50.808Z,14.33
2018-07-31T05:51:19.557Z,19.27
2018-07-31T05:53:48.372Z,19.37
2018-07-31T05:56:17.202Z,22.60
2018-07-31T05:58:46.778Z,18.40
2018-07-31T06:01:15.428Z,18.50
2018-07-31T06:03:44.070Z,16.77
2018-07-31T06:06:12.820Z,19.47
2018-07-31T06:08:41.478Z,15.93
2018-07-31T06:11:10.149Z,17.90
2018-07-31T06:13:38.856Z,16.33
2018-07-31T06:16:07.605Z,15.50
2018-07-31T06:18:36.641Z,15.50
2018-07-31T06:21:05.356Z,17.23
2018-07-31T06:23:34.036Z,14.73
2018-07-31T06:26:02.758Z,14.47
2018-07-31T06:28:31.581Z,16.13
2018-07-31T06:31:00.276Z,15.03
2018-07-31T06:33:29.065Z,13.30
2018-07-31T06:35:57.817Z,14.87
2018-07-31T06:38:26.462Z,15.87
2018-07-31T06:40:55.109Z,13.87
2018-07-31T06:43:23.994Z,14.33
2018-07-31T06:45:52.671Z,16.63
2018-07-31T06:48:21.629Z,18.37
2018-07-31T06:50:50.313Z,16.00
2018-07-31T06:53:18.964Z,17.80
2018-07-31T06:55:47.651Z,13.90
2018-07-31T06:58:16.553Z,13.73
2018-07-31T07:00:45.178Z,12.17
2018-07-31T07:03:13.867Z,11.80
2018-07-31T07:05:42.553Z,11.60
2018-07-31T07:08:11.287Z,11.70
2018-07-31T07:10:40.247Z,15.53
2018-07-31T07:13:08.926Z,11.73
2018-07-31T07:15:37.603Z,14.87
2018-07-31T07:18:06.463Z,13.20
2018-07-31T07:20:35.123Z,11.23
2018-07-31T07:23:03.792Z,14.97
2018-07-31T07:25:32.507Z,11.50
2018-07-31T07:28:01.180Z,10.73
2018-07-31T07:30:29.810Z,8.40
2018-07-31T07:32:58.480Z,9.50
2018-07-31T07:35:27.316Z,6.97
2018-07-31T07:37:56.090Z,10.03
2018-07-31T07:40:24.847Z,7.93
2018-07-31T07:42:53.467Z,8.70
2018-07-31T07:45:22.139Z,10.33
2018-07-31T07:47:50.827Z,10.27
2018-07-31T07:50:19.536Z,9.43
2018-07-31T07:52:48.574Z,8.33
2018-07-31T07:55:17.229Z,9.83
2018-07-31T07:57:45.869Z,16.07
2018-07-31T08:00:14.537Z,10.83
2018-07-31T08:02:43.187Z,10.43
2018-07-31T08:05:11.882Z,11.80
2018-07-31T08:07:41.252Z,13.20
2018-07-31T08:10:09.955Z,13.97
2018-07-31T08:12:38.639Z,14.87
2018-07-31T08:15:07.336Z,15.03
2018-07-31T08:17:35.987Z,16.27
2018-07-31T08:20:05.683Z,14.90
2018-07-31T08:22:34.324Z,15.40
2018-07-31T08:25:03.115Z,14.40
2018-07-31T08:27:31.778Z,15.77
2018-07-31T08:30:00.475Z,13.40
2018-07-31T08:32:29.126Z,11.27
2018-07-31T08:34:57.895Z,9.93
2018-07-31T08:37:26.611Z,13.00
2018-07-31T08:39:55.373Z,9.77
2018-07-31T08:42:24.870Z,10.03
2018-07-31T08:44:53.527Z,9.00
2018-07-31T08:47:22.281Z,9.30
2018-07-31T08:49:51.019Z,12.20
2018-07-31T08:52:19.778Z,10.08
2018-07-31T08:54:49.540Z,9.00
2018-07-31T08:57:18.174Z,9.50
2018-07-31T08:59:46.858Z,9.78
2018-07-31T09:02:15.508Z,11.13
2018-07-31T09:04:44.173Z,8.93
2018-07-31T09:07:12.777Z,8.80
2018-07-31T09:09:41.541Z,8.60
2018-07-31T09:12:10.210Z,9.07
2018-07-31T09:14:38.859Z,9.00
2018-07-31T09:17:07.581Z,8.23
2018-07-31T09:19:36.241Z,9.80
2018-07-31T09:22:04.898Z,8.60
2018-07-31T09:24:33.643Z,9.33
2018-07-31T09:27:02.293Z,9.20
2018-07-31T09:29:30.974Z,8.17
2018-07-31T09:31:59.631Z,9.23
2018-07-31T09:34:28.423Z,10.53
2018-07-31T09:36:57.137Z,8.80
2018-07-31T09:39:25.819Z,11.55
2018-07-31T09:41:54.447Z,9.37
2018-07-31T09:44:23.167Z,10.20
2018-07-31T09:46:51.879Z,9.73
2018-07-31T09:49:20.512Z,10.53
2018-07-31T09:51:49.218Z,10.83
2018-07-31T09:54:17.893Z,10.18
2018-07-31T09:56:46.547Z,12.27
2018-07-31T09:59:15.276Z,14.45
2018-07-31T10:01:43.959Z,10.48
2018-07-31T10:04:12.622Z,12.18
2018-07-31T10:06:41.239Z,9.40
2018-07-31T10:09:10.754Z,8.63
2018-07-31T10:11:39.416Z,16.93
2018-07-31T10:14:08.082Z,11.40
2018-07-31T10:16:36.806Z,11.88
2018-07-31T10:19:05.450Z,8.90
2018-07-31T10:21:34.100Z,9.93
2018-07-31T10:24:02.800Z,9.15
2018-07-31T10:26:31.717Z,9.23
2018-07-31T10:29:00.362Z,16.05
2018-07-31T10:31:29.361Z,9.18
2018-07-31T10:33:57.974Z,11.55
2018-07-31T10:36:26.781Z,9.75
2018-07-31T10:38:55.461Z,9.28
2018-07-31T10:41:24.119Z,8.38
2018-07-31T10:43:52.837Z,9.13
2018-07-31T10:46:21.454Z,11.95
2018-07-31T10:48:50.195Z,12.13
2018-07-31T10:51:18.841Z,10.50
2018-07-31T10:53:47.497Z,9.15
2018-07-31T10:56:16.126Z,12.98
2018-07-31T10:58:44.875Z,14.80
2018-07-31T11:01:13.455Z,10.18
2018-07-31T11:03:42.120Z,14.35
2018-07-31T11:06:10.782Z,10.03
2018-07-31T11:08:39.437Z,12.00
2018-07-31T11:11:08.126Z,10.80
2018-07-31T11:13:36.878Z,11.20
2018-07-31T11:16:05.766Z,9.88
2018-07-31T11:18:34.422Z,9.93
2018-07-31T11:21:03.198Z,8.78
2018-07-31T11:23:31.819Z,10.80
2018-07-31T11:26:00.464Z,11.68
2018-07-31T11:28:29.080Z,10.18
2018-07-31T11:30:57.717Z,10.60
2018-07-31T11:33:26.376Z,8.75
2018-07-31T11:35:55.187Z,8.63
2018-07-31T11:38:23.894Z,10.00
2018-07-31T11:40:52.597Z,9.65
2018-07-31T11:43:21.230Z,9.00
2018-07-31T11:45:49.904Z,9.68
2018-07-31T11:48:18.609Z,11.45
2018-07-31T11:50:47.477Z,9.03
2018-07-31T11:53:16.179Z,8.90
2018-07-31T11:55:44.808Z,8.85
2018-07-31T11:58:13.529Z,11.18
2018-07-31T12:00:42.274Z,9.53
2018-07-31T12:03:10.945Z,20.00
2018-07-31T12:05:39.632Z,7.22
2018-07-31T12:08:08.292Z,6.92
2018-07-31T12:10:37.012Z,9.40
2018-07-31T12:13:05.709Z,8.08
2018-07-31T12:15:34.388Z,8.88
2018-07-31T12:18:03.274Z,7.25
2018-07-31T12:20:31.935Z,9.10
2018-07-31T12:23:00.623Z,10.65
2018-07-31T12:25:29.249Z,11.33
2018-07-31T12:28:01.662Z,10.38
2018-07-31T12:30:30.323Z,9.88
2018-07-31T12:32:59.045Z,11.25
2018-07-31T12:35:27.877Z,7.30
2018-07-31T12:37:56.537Z,15.98
2018-07-31T12:40:25.209Z,11.00
2018-07-31T12:42:53.833Z,11.20
2018-07-31T12:45:22.521Z,9.58
2018-07-31T12:47:51.116Z,9.85
2018-07-31T12:50:19.742Z,10.38
2018-07-31T12:52:48.401Z,9.85
2018-07-31T12:55:17.022Z,12.82
2018-07-31T12:57:45.658Z,11.93
2018-07-31T13:00:14.303Z,11.50
2018-07-31T13:02:42.941Z,8.10
2018-07-31T13:05:11.634Z,8.15
2018-07-31T13:07:40.281Z,10.82
2018-07-31T13:10:08.973Z,7.57
2018-07-31T13:12:37.601Z,10.55
2018-07-31T13:15:06.311Z,12.77
2018-07-31T13:17:35.126Z,9.00
2018-07-31T13:20:03.863Z,13.47
2018-07-31T13:22:32.526Z,10.77
2018-07-31T13:25:01.215Z,9.70
2018-07-31T13:27:29.899Z,14.17
2018-07-31T13:29:58.653Z,9.93
2018-07-31T13:32:27.311Z,8.33
2018-07-31T13:34:55.966Z,8.43
2018-07-31T13:37:24.639Z,7.03
2018-07-31T13:39:53.257Z,11.77
2018-07-31T13:42:22.003Z,8.80
2018-07-31T13:44:50.700Z,10.57
2018-07-31T13:47:19.434Z,11.03
2018-07-31T13:49:48.108Z,8.70
2018-07-31T13:52:16.793Z,8.40
2018-07-31T13:54:45.434Z,13.00
2018-07-31T13:57:14.120Z,10.93
2018-07-31T13:59:42.773Z,10.40
2018-07-31T14:02:11.443Z,6.90
2018-07-31T14:04:40.068Z,7.80
2018-07-31T14:07:08.739Z,11.57
2018-07-31T14:09:37.406Z,7.97
2018-07-31T14:12:06.107Z,5.10
2018-07-31T14:14:34.801Z,5.20
2018-07-31T14:17:03.438Z,4.83
2018-07-31T14:19:32.117Z,5.10
2018-07-31T14:22:00.804Z,6.10
2018-07-31T14:24:29.466Z,8.67
2018-07-31T14:26:58.152Z,5.63
2018-07-31T14:29:26.795Z,7.07
2018-07-31T14:31:55.473Z,6.87
2018-07-31T14:34:24.121Z,6.43
2018-07-31T14:36:52.781Z,6.83
2018-07-31T14:39:21.404Z,7.80
2018-07-31T14:41:50.282Z,5.73
2018-07-31T14:44:18.926Z,5.80
2018-07-31T14:46:47.670Z,9.30
2018-07-31T14:49:16.327Z,6.63
2018-07-31T14:51:44.932Z,5.60
2018-07-31T14:54:13.616Z,8.67
2018-07-31T14:56:42.290Z,7.20
2018-07-31T14:59:11.210Z,6.70
2018-07-31T15:01:39.930Z,7.70
2018-07-31T15:04:08.590Z,8.63
2018-07-31T15:06:37.237Z,7.17
2018-07-31T15:09:08.791Z,7.57
2018-07-31T15:11:37.482Z,6.90
2018-07-31T15:14:06.248Z,8.13
2018-07-31T15:16:35.380Z,8.73
2018-07-31T15:19:04.030Z,9.30
2018-07-31T15:21:32.665Z,10.50
2018-07-31T15:24:01.365Z,10.23
2018-07-31T15:26:30.077Z,10.27
2018-07-31T15:28:58.754Z,10.00
2018-07-31T15:31:27.493Z,9.23
2018-07-31T15:33:56.133Z,10.13
2018-07-31T15:36:24.778Z,13.07
2018-07-31T15:38:53.451Z,8.87
2018-07-31T15:41:22.124Z,8.57
2018-07-31T15:43:50.787Z,8.67
2018-07-31T15:46:19.436Z,10.03
2018-07-31T15:48:48.073Z,11.13
2018-07-31T15:51:16.737Z,7.67
2018-07-31T15:53:45.378Z,9.57
2018-07-31T15:56:13.994Z,7.67
2018-07-31T15:58:42.650Z,7.80
2018-07-31T16:01:11.340Z,7.60
2018-07-31T16:03:40.584Z,9.60
2018-07-31T16:06:09.268Z,8.57
2018-07-31T16:08:37.929Z,7.58
2018-07-31T16:11:06.656Z,8.80
2018-07-31T16:13:35.422Z,9.50
2018-07-31T16:16:04.130Z,9.73
2018-07-31T16:18:32.777Z,9.33
2018-07-31T16:21:01.439Z,9.53
2018-07-31T16:23:30.189Z,10.47
2018-07-31T16:25:59.342Z,8.78
2018-07-31T16:28:28.025Z,9.83
2018-07-31T16:30:56.668Z,13.83
2018-07-31T16:33:25.394Z,22.58
2018-07-31T16:35:54.426Z,14.25
2018-07-31T16:38:23.480Z,17.42
2018-07-31T16:40:52.179Z,7.55
2018-07-31T16:43:20.843Z,9.78
2018-07-31T16:45:49.465Z,9.60
2018-07-31T16:48:18.162Z,8.75
2018-07-31T16:50:46.854Z,13.30
2018-07-31T16:53:15.572Z,13.60
2018-07-31T16:55:44.262Z,16.97
2018-07-31T16:58:12.993Z,13.08
2018-07-31T17:00:41.651Z,9.20
2018-07-31T17:03:10.276Z,10.00
2018-07-31T17:05:38.910Z,13.18
2018-07-31T17:08:07.582Z,23.60
2018-07-31T17:10:36.201Z,26.33
2018-07-31T17:13:04.952Z,18.73
2018-07-31T17:15:34.237Z,14.75
2018-07-31T17:18:02.860Z,16.62
2018-07-31T17:20:31.562Z,25.45
2018-07-31T17:23:00.219Z,16.67
2018-07-31T17:25:28.910Z,23.17
2018-07-31T17:27:57.585Z,25.55
2018-07-31T17:30:26.272Z,27.80
2018-07-31T17:32:54.949Z,26.40
2018-07-31T17:35:23.631Z,20.97
2018-07-31T17:37:52.954Z,20.40
2018-07-31T17:40:21.950Z,17.33
2018-07-31T17:42:50.614Z,16.70
2018-07-31T17:45:19.217Z,20.83
2018-07-31T17:47:47.845Z,20.33
2018-07-31T17:50:16.533Z,15.63
2018-07-31T17:52:45.324Z,18.43
2018-07-31T17:55:13.911Z,21.20
2018-07-31T17:57:42.538Z,20.87
2018-07-31T18:00:11.215Z,25.07
2018-07-31T18:02:39.877Z,24.53
2018-07-31T18:05:08.536Z,14.33
2018-07-31T18:07:37.226Z,21.83
2018-07-31T18:10:05.957Z,20.53
2018-07-31T18:12:34.681Z,18.50
2018-07-31T18:15:03.318Z,18.03
2018-07-31T18:17:32.110Z,23.60
2018-07-31T18:20:00.807Z,21.20
2018-07-31T18:22:31.042Z,17.57
2018-07-31T18:24:59.691Z,15.63
2018-07-31T18:27:28.487Z,16.17
2018-07-31T18:29:57.210Z,21.53
2018-07-31T18:32:25.902Z,18.97
2018-07-31T18:34:54.613Z,16.20
2018-07-31T18:37:23.358Z,19.60
2018-07-31T18:39:52.267Z,16.40
2018-07-31T18:42:21.051Z,18.00
2018-07-31T18:44:50.996Z,16.73
2018-07-31T18:47:19.677Z,17.23
2018-07-31T18:51:17.430Z,16.63
2018-07-31T18:53:46.086Z,19.60
2018-07-31T18:56:14.725Z,21.40
2018-07-31T18:58:43.454Z,18.27
2018-07-31T19:01:12.388Z,12.47
2018-07-31T19:03:41.187Z,14.67
2018-07-31T19:06:09.914Z,18.37
2018-07-31T19:08:38.824Z,16.93
2018-07-31T19:11:08.763Z,15.53
2018-07-31T19:13:37.476Z,15.77
2018-07-31T19:16:06.285Z,17.70
2018-07-31T19:18:35.105Z,16.37
2018-07-31T19:21:03.852Z,19.90
2018-07-31T19:23:32.673Z,23.50
2018-07-31T19:26:01.712Z,26.63
2018-07-31T19:28:30.521Z,27.00
2018-07-31T19:30:59.633Z,22.77
2018-07-31T19:33:28.548Z,26.23
2018-07-31T19:35:57.294Z,26.10
2018-07-31T19:38:26.038Z,25.47
2018-07-31T19:40:56.113Z,21.40
2018-07-31T19:43:25.005Z,22.13
2018-07-31T19:45:54.340Z,24.30
2018-07-31T19:48:23.182Z,23.23
2018-07-31T19:50:51.926Z,23.10
2018-07-31T19:53:20.693Z,17.17
2018-07-31T19:55:49.429Z,20.83
2018-07-31T19:58:18.201Z,19.47
2018-07-31T20:00:47.209Z,17.07
2018-07-31T20:03:16.478Z,16.90
2018-07-31T20:05:45.210Z,19.40
2018-07-31T20:08:14.003Z,22.77
2018-07-31T20:10:42.639Z,25.20
2018-07-31T20:13:11.302Z,24.47
2018-07-31T20:15:39.944Z,26.07
2018-07-31T20:18:08.785Z,22.53
2018-07-31T20:20:37.464Z,20.23
2018-07-31T20:23:06.210Z,22.07
2018-07-31T20:25:34.861Z,15.63
2018-07-31T20:28:03.755Z,21.37
2018-07-31T20:30:32.482Z,19.90
2018-07-31T20:34:04.422Z,16.73
2018-07-31T20:36:33.848Z,16.70
2018-07-31T20:39:02.623Z,19.03
2018-07-31T20:41:33.916Z,17.77
2018-07-31T20:44:02.703Z,19.13
2018-07-31T20:46:31.507Z,26.43
2018-07-31T20:49:00.173Z,20.30
2018-07-31T20:51:28.877Z,24.50
2018-07-31T20:53:57.607Z,22.90
2018-07-31T20:56:26.425Z,28.20
2018-07-31T20:58:55.110Z,20.87
2018-07-31T21:01:23.843Z,18.97
2018-07-31T21:03:52.525Z,21.73
2018-07-31T21:06:21.354Z,21.70
2018-07-31T21:08:50.547Z,23.13
2018-07-31T21:11:19.208Z,26.23
2018-07-31T21:13:48.042Z,16.83
2018-07-31T21:16:16.829Z,22.50
2018-07-31T21:18:45.761Z,18.07
2018-07-31T21:21:14.439Z,22.77
2018-07-31T21:23:43.108Z,17.70
2018-07-31T21:26:11.811Z,19.63
2018-07-31T21:28:40.505Z,24.90
2018-07-31T21:31:09.226Z,27.30
2018-07-31T21:33:37.939Z,36.50
2018-07-31T21:36:06.823Z,29.57
2018-07-31T21:38:35.475Z,23.77
2018-07-31T21:41:04.150Z,23.27
2018-07-31T21:43:32.820Z,23.53
2018-07-31T21:46:01.543Z,20.87
2018-07-31T21:48:30.200Z,21.07
2018-07-31T21:50:58.917Z,22.43
2018-07-31T21:53:27.745Z,19.47
2018-07-31T21:55:56.445Z,17.13
2018-07-31T21:58:25.112Z,18.13
2018-07-31T22:00:59.080Z,17.37
2018-07-31T22:03:27.905Z,17.53
2018-07-31T22:05:56.694Z,17.47
2018-07-31T22:08:25.433Z,20.60
2018-07-31T22:10:54.183Z,21.93
2018-07-31T22:13:22.899Z,18.23
2018-07-31T22:15:51.575Z,20.87
2018-07-31T22:18:20.262Z,20.13
2018-07-31T22:20:49.051Z,21.27
2018-07-31T22:23:17.794Z,18.47
2018-07-31T22:25:46.451Z,17.33
2018-07-31T22:28:15.170Z,20.83
2018-07-31T22:30:43.860Z,16.77
2018-07-31T22:33:12.710Z,17.60
2018-07-31T22:35:41.399Z,19.20
2018-07-31T22:38:10.220Z,17.20
2018-07-31T22:40:38.943Z,16.50
2018-07-31T22:43:07.657Z,15.63
2018-07-31T22:45:36.319Z,19.27
2018-07-31T22:48:05.099Z,17.07
2018-07-31T22:50:33.747Z,17.47
2018-07-31T22:53:02.405Z,19.53
2018-07-31T22:55:31.259Z,16.33
2018-07-31T22:58:00.018Z,19.60
2018-07-31T23:00:28.998Z,19.80
2018-07-31T23:02:57.643Z,16.60
2018-07-31T23:05:26.311Z,15.23
2018-07-31T23:07:55.036Z,18.97
2018-07-31T23:10:23.709Z,15.73
2018-07-31T23:12:52.385Z,19.10
2018-07-31T23:15:21.058Z,19.90
2018-07-31T23:17:49.815Z,15.43
2018-07-31T23:20:18.514Z,18.87
2018-07-31T23:22:48.419Z,17.37
2018-07-31T23:25:17.096Z,17.60
2018-07-31T23:27:45.798Z,15.83
2018-07-31T23:30:14.538Z,20.53
2018-07-31T23:32:43.505Z,15.50
2018-07-31T23:35:12.377Z,18.13
2018-07-31T23:38:43.926Z,18.87
2018-07-31T23:41:12.606Z,15.73
2018-07-31T23:43:41.300Z,15.50
2018-07-31T23:46:10.072Z,18.43
2018-07-31T23:48:38.808Z,16.20
2018-07-31T23:51:07.478Z,17.07
2018-07-31T23:53:36.193Z,17.47
2018-07-31T23:56:04.947Z,18.80
2018-07-31T23:58:33.594Z,17.23
